Flight Track Log - Related Links

Times and Time Zones

All times are in EDT time to prevent confusion due to time zone crossing. See the DAL3678 flight status page for this flight to view local times or setup timezone preferences in your user account.

Time Position Orientation Groundspeed Altitude Reporting Facility
EDT Latitude Longitude Course Direction KTS MPH feet Rate Location/Type
Thu 04:30:03 PM 42.9500 -87.8833 90° East 135 155 1,700  Level KMKE
Thu 04:30:45 PM 42.9500 -87.8500 90° East 161 185 3,100 1,747 Climbing KMKE
Thu 04:31:22 PM 42.9589 -87.8133 72° East 180 207 4,000 1,515 Climbing Chicago Center
Thu 04:32:24 PM 42.9742 -87.7028 79° East 259 298 5,600 2,129 Climbing Chicago Center
Thu 04:33:26 PM 42.9886 -87.5958 80° East 285 328 8,400 2,323 Climbing Chicago Center
Thu 04:34:28 PM 42.9869 -87.4844 91° East 296 341 10,400 1,632 Climbing Chicago Center
Thu 04:35:31 PM 42.9867 -87.3683 90° East 314 361 11,800 1,392 Climbing Chicago Center
Thu 04:36:33 PM 42.9856 -87.2361 91° East 346 398 13,300 1,548 Climbing Chicago Center
Thu 04:37:35 PM 42.9839 -87.0764 91° East 352 405 15,000 1,500 Climbing Chicago Center
Thu 04:38:37 PM 42.9947 -86.9397 84° East 366 421 16,400 1,258 Climbing Chicago Center
Thu 04:39:39 PM 43.0167 -86.8017 78° East 373 429 17,600 1,065 Climbing Chicago Center
Thu 04:40:41 PM 43.0381 -86.6614 78° East 377 434 18,600 677 Climbing Chicago Center
Thu 04:41:43 PM 43.0614 -86.5128 78° East 394 453 19,000 194 Climbing Chicago Center
Thu 04:42:45 PM 43.0842 -86.3667 78° East 395 455 19,000  Level Chicago Center
Thu 04:43:47 PM 43.1056 -86.2200 79° East 392 451 19,000  Level Chicago Center
Thu 04:44:49 PM 43.1328 -86.0392 78° East 395 455 19,000  Level Chicago Center
Thu 04:45:51 PM 43.1547 -85.8847 79° East 400 460 19,000  Level Chicago Center
Thu 04:46:53 PM 43.1758 -85.7369 79° East 392 451 19,000  Level Chicago Center
Thu 04:47:55 PM 43.1958 -85.5914 79° East 390 449 19,000  Level Chicago Center
Thu 04:48:57 PM 43.2175 -85.4397 79° East 401 461 19,000  Level Chicago Center
Thu 04:49:33 PM 43.2308 -85.3511 78° East 411 473 19,000  Level Cleveland Center
Thu 04:50:33 PM 43.2419 -85.1836 85° East 405 466 19,000  Level Cleveland Center
Thu 04:51:33 PM 43.2142 -85.0419 105° East 390 449 19,000  Level Cleveland Center
Thu 04:52:33 PM 43.1861 -84.8975 105° East 385 443 19,000 -450 Level Cleveland Center
Thu 04:53:33 PM 43.1581 -84.7558 105° East 385 443 18,100 -950 Descending Cleveland Center
Thu 04:54:33 PM 43.1144 -84.6364 117° Southeast 373 429 17,100 -1,011 Descending Cleveland Center
Thu 04:55:08 PM 43.0886 -84.5819 123° Southeast 340 391 16,500 -1,052 Descending Chicago Center
Thu 04:56:10 PM 43.0411 -84.4708 120° Southeast 337 388 15,400 -823 Descending Chicago Center
Thu 04:57:12 PM 43.0086 -84.3497 110° East 338 389 14,800 -651 Descending Chicago Center
Thu 04:57:33 PM 42.9942 -84.3047 114° Southeast 338 389 14,500 -1,000 Descending Cleveland Center
Thu 04:58:00 PM 42.9736 -84.2269 110° East 355 409 14,000 -700 Descending Cleveland Center
Thu 04:58:33 PM 42.9586 -84.1778 113° Southeast 344 396 13,800 -649 Descending Cleveland Center
Thu 04:59:14 PM 42.9344 -84.0800 109° East 354 407 13,200 -800 Descending Cleveland Center
Thu 04:59:33 PM 42.9228 -84.0539 121° Southeast 344 396 13,000 -778 Descending Cleveland Center
Thu 05:00:08 PM 42.9003 -83.9675 110° East 350 403 12,500 -700 Descending Cleveland Center
Thu 05:00:33 PM 42.8911 -83.9300 108° East 349 402 12,300 -353 Descending Cleveland Center
Thu 05:01:33 PM 42.8528 -83.8064 113° Southeast 349 402 12,000 -165 Descending Cleveland Center
Thu 05:02:22 PM 42.8031 -83.7189 128° Southeast 319 367 12,000  Level Cleveland Center
Thu 05:03:23 PM 42.7253 -83.6697 155° Southeast 307 353 12,000  Level Cleveland Center
Thu 05:04:33 PM 42.6389 -83.6203 157° South 304 350 12,000  Level Cleveland Center
Thu 05:05:25 PM 42.5631 -83.5742 156° South 312 359 12,000  Level Cleveland Center
Thu 05:06:26 PM 42.4831 -83.5253 156° South 314 361 12,000  Level Cleveland Center
Thu 05:07:33 PM 42.4028 -83.4822 158° South 309 356 12,000 -49 Level Cleveland Center
Thu 05:08:28 PM 42.3411 -83.4514 160° South 228 262 11,900 -826 Descending Cleveland Center
Thu 05:09:22 PM 42.2847 -83.4489 178° South 230 265 10,500 -1,565 Descending Cleveland Center
Thu 05:10:23 PM 42.2300 -83.4772 201° Southwest 213 245 8,900 -1,603 Descending Cleveland Center
Thu 05:11:18 PM 42.1772 -83.5028 200° South 210 242 7,400 -1,759 Descending Cleveland Center
Thu 05:12:19 PM 42.1242 -83.5339 204° Southwest 202 232 5,500 -1,922 Descending Cleveland Center
Thu 05:13:26 PM 42.0669 -83.5678 204° Southwest 197 227 3,300 -1,172 Descending Cleveland Center
Thu 05:14:27 PM 42.0561 -83.5083 104° East 200 230 3,000 -157 Descending Cleveland Center
Thu 05:15:21 PM 42.0925 -83.4653 41° Northeast 176 203 3,000 -313 Level Cleveland Center
Thu 05:16:22 PM 42.1286 -83.4389 28° Northeast 131 151 2,400 -590 Descending Cleveland Center

Login

Don't have an account? Register now (free) for customized features, flight alerts, and more!